Time;durP1;ratioP1;P1;durP2;ratioP2;P2;SDS_P1;SDS_P2;PMS_P1;PMS_P2;Temp;Humidity;BMP_temperature;BMP_pressure;BME280_temperature;BME280_humidity;BME280_pressure;Samples;Min_cycle;Max_cycle;Signal;HPM_P1;HPM_P2
2022/07/13 00:00:14;;;;;;;1.80;1.70;;;22.90;66.10;;;;;;5069126;27;43605;-60
2022/07/13 00:02:41;;;;;;;2.20;2.10;;;22.90;66.20;;;;;;5062037;28;44038;-60
2022/07/13 00:05:09;;;;;;;2.10;2.00;;;22.90;66.30;;;;;;5062915;28;43509;-60
2022/07/13 00:07:36;;;;;;;1.90;1.80;;;22.90;66.30;;;;;;5063277;28;43406;-61
2022/07/13 00:10:04;;;;;;;1.77;1.67;;;22.90;66.30;;;;;;5062958;28;43654;-61
2022/07/13 00:12:31;;;;;;;1.95;1.83;;;22.90;66.30;;;;;;5062580;28;43947;-60
2022/07/13 00:14:59;;;;;;;1.80;1.70;;;22.90;66.30;;;;;;5062495;28;43573;-60
2022/07/13 00:17:26;;;;;;;1.80;1.70;;;22.90;66.90;;;;;;5063275;28;43414;-60
2022/07/13 00:19:53;;;;;;;1.70;1.60;;;22.90;66.30;;;;;;5062472;28;43545;-60
2022/07/13 00:22:20;;;;;;;1.88;1.77;;;22.90;66.20;;;;;;5062340;28;44056;-60
2022/07/13 00:24:48;;;;;;;1.95;1.85;;;22.90;66.30;;;;;;5061978;28;43538;-60
2022/07/13 00:27:15;;;;;;;1.80;1.70;;;22.90;66.20;;;;;;5063301;28;43457;-60
2022/07/13 00:29:43;;;;;;;1.80;1.70;;;22.90;66.20;;;;;;5062379;28;43688;-60
2022/07/13 00:32:10;;;;;;;1.70;1.60;;;22.90;66.20;;;;;;5061033;28;45221;-60
2022/07/13 00:34:37;;;;;;;1.80;1.70;;;22.80;66.10;;;;;;5062931;28;43974;-60
2022/07/13 00:37:05;;;;;;;1.65;1.55;;;22.80;66.20;;;;;;5062399;28;43483;-60
2022/07/13 00:39:32;;;;;;;1.77;1.67;;;22.80;66.10;;;;;;5054611;28;43607;-60
2022/07/13 00:41:59;;;;;;;1.70;1.60;;;22.80;66.20;;;;;;5059860;28;44043;-60
2022/07/13 00:44:27;;;;;;;1.90;1.80;;;22.90;66.20;;;;;;5061355;28;44048;-60
2022/07/13 00:46:54;;;;;;;1.73;1.63;;;22.80;66.10;;;;;;5077999;28;43471;-60
2022/07/13 00:49:22;;;;;;;1.58;1.52;;;22.80;66.10;;;;;;5061485;28;43545;-60
2022/07/13 00:51:50;;;;;;;1.60;1.60;;;22.80;66.10;;;;;;5061647;28;44932;-60
2022/07/13 00:54:19;;;;;;;1.40;1.40;;;22.80;66.10;;;;;;5062280;28;43473;-60
2022/07/13 00:56:48;;;;;;;1.75;1.65;;;22.80;66.10;;;;;;5062280;28;43471;-60
2022/07/13 00:59:16;;;;;;;1.90;1.80;;;22.80;66.00;;;;;;5062526;28;43489;-60
2022/07/13 01:01:43;;;;;;;1.60;1.60;;;22.80;66.10;;;;;;5060614;28;44220;-60
2022/07/13 01:04:11;;;;;;;1.40;1.40;;;22.80;66.10;;;;;;5056361;28;43462;-60
2022/07/13 01:06:38;;;;;;;1.80;1.70;;;22.80;66.10;;;;;;5053503;28;43881;-61
2022/07/13 01:09:06;;;;;;;1.88;1.77;;;22.80;66.10;;;;;;5061715;28;43487;-60
2022/07/13 01:11:34;;;;;;;1.63;1.52;;;22.80;66.10;;;;;;5076617;28;45045;-60
2022/07/13 01:14:01;;;;;;;1.73;1.63;;;22.80;66.10;;;;;;5061058;28;43962;-60
2022/07/13 01:16:29;;;;;;;1.60;1.50;;;22.80;66.10;;;;;;5041638;28;43489;-60
2022/07/13 01:18:58;;;;;;;1.80;1.70;;;22.80;66.10;;;;;;5059930;28;43603;-61
2022/07/13 01:21:25;;;;;;;1.67;1.60;;;22.80;66.10;;;;;;5061239;28;45134;-60
2022/07/13 01:23:53;;;;;;;1.85;1.75;;;22.80;66.10;;;;;;5061947;28;43930;-60
2022/07/13 01:26:20;;;;;;;1.40;1.40;;;22.80;66.00;;;;;;5061843;28;43386;-60
2022/07/13 01:28:48;;;;;;;1.60;1.60;;;22.80;66.00;;;;;;5061611;28;43644;-61
2022/07/13 01:31:32;;;;;;;1.45;1.45;;;22.80;66.00;;;;;;5061261;28;44069;-60
2022/07/13 01:34:00;;;;;;;1.90;1.80;;;22.70;65.90;;;;;;5059971;28;43672;-60
2022/07/13 01:36:28;;;;;;;1.55;1.55;;;22.80;66.00;;;;;;5060283;28;43421;-60
2022/07/13 01:38:57;;;;;;;1.80;1.70;;;22.70;65.90;;;;;;5061773;28;43578;-60
2022/07/13 01:41:26;;;;;;;1.33;1.33;;;22.80;66.00;;;;;;5059369;28;44070;-60
2022/07/13 01:43:54;;;;;;;1.40;1.40;;;22.70;65.90;;;;;;5060168;28;43799;-60
2022/07/13 01:46:21;;;;;;;1.80;1.70;;;22.80;66.00;;;;;;5062083;28;43417;-60
2022/07/13 01:48:49;;;;;;;1.50;1.50;;;22.70;65.90;;;;;;5060885;28;43620;-60
2022/07/13 01:51:17;;;;;;;1.58;1.48;;;22.70;65.90;;;;;;5076851;28;43746;-60
2022/07/13 01:53:45;;;;;;;1.50;1.50;;;22.80;65.90;;;;;;5060500;28;43548;-60
2022/07/13 01:56:13;;;;;;;1.42;1.40;;;22.80;65.90;;;;;;5060643;28;43423;-60
2022/07/13 01:58:41;;;;;;;1.48;1.48;;;22.70;65.90;;;;;;5069539;28;43411;-60
2022/07/13 02:01:08;;;;;;;1.40;1.40;;;22.70;66.50;;;;;;5075062;28;45008;-60
2022/07/13 02:03:36;;;;;;;1.80;1.70;;;22.70;65.80;;;;;;5056964;28;43423;-60
2022/07/13 02:06:05;;;;;;;1.50;1.40;;;22.70;65.90;;;;;;5060985;28;43442;-61
2022/07/13 02:08:33;;;;;;;1.70;1.60;;;22.70;65.80;;;;;;5060378;28;43412;-60
2022/07/13 02:11:01;;;;;;;1.60;1.50;;;22.70;66.50;;;;;;5076583;28;44066;-61
2022/07/13 02:13:28;;;;;;;1.52;1.50;;;22.70;65.80;;;;;;5061270;28;44036;-60
2022/07/13 02:15:56;;;;;;;1.60;1.50;;;22.70;65.80;;;;;;5061159;28;43518;-62
2022/07/13 02:18:25;;;;;;;1.63;1.52;;;22.70;65.80;;;;;;5062089;28;43595;-60
2022/07/13 02:20:52;;;;;;;2.78;1.50;;;22.70;65.90;;;;;;5060686;28;43870;-60
2022/07/13 02:23:21;;;;;;;1.70;1.60;;;22.70;66.40;;;;;;5059921;28;44025;-60
2022/07/13 02:25:49;;;;;;;1.35;1.35;;;22.70;65.80;;;;;;5076511;28;43466;-60
2022/07/13 02:28:16;;;;;;;1.70;1.60;;;22.70;65.80;;;;;;5061237;28;43613;-61
2022/07/13 02:30:43;;;;;;;1.40;1.40;;;22.70;65.80;;;;;;5065161;28;44145;-60
2022/07/13 02:33:12;;;;;;;1.40;1.40;;;22.70;65.80;;;;;;5060483;28;44075;-60
2022/07/13 02:35:41;;;;;;;1.52;1.42;;;22.70;65.80;;;;;;5058534;28;43981;-60
2022/07/13 02:38:08;;;;;;;1.60;1.50;;;22.70;65.90;;;;;;5059541;28;43552;-60
2022/07/13 02:40:36;;;;;;;1.63;1.52;;;22.70;65.70;;;;;;5054900;28;45055;-60
2022/07/13 02:43:04;;;;;;;1.33;1.33;;;22.70;65.70;;;;;;5060333;28;44057;-60
2022/07/13 02:45:31;;;;;;;1.65;1.55;;;22.70;65.80;;;;;;5061080;28;43367;-60
2022/07/13 02:47:59;;;;;;;1.40;1.30;;;22.70;65.70;;;;;;5058965;28;43518;-60
2022/07/13 02:50:27;;;;;;;1.20;1.20;;;22.70;65.80;;;;;;5060323;28;45031;-60
2022/07/13 02:52:54;;;;;;;1.73;1.70;;;22.70;65.80;;;;;;5059713;28;43676;-60
2022/07/13 02:55:22;;;;;;;1.60;1.50;;;22.70;65.80;;;;;;5061601;28;43450;-60
2022/07/13 02:57:49;;;;;;;1.40;1.40;;;22.70;65.80;;;;;;5042297;28;43524;-61
2022/07/13 03:00:17;;;;;;;1.30;1.30;;;22.70;65.80;;;;;;5060980;28;44018;-60
2022/07/13 03:02:44;;;;;;;1.40;1.40;;;22.70;65.80;;;;;;5057512;28;43440;-60
2022/07/13 03:05:14;;;;;;;1.40;1.40;;;22.70;65.80;;;;;;5060335;28;43385;-60
2022/07/13 03:07:41;;;;;;;1.30;1.30;;;22.70;65.80;;;;;;5059100;28;43546;-61
2022/07/13 03:10:09;;;;;;;1.50;1.40;;;22.70;65.70;;;;;;5063558;28;44988;-60
2022/07/13 03:12:39;;;;;;;1.20;1.20;;;22.70;65.70;;;;;;5062323;28;43928;-60
2022/07/13 03:15:06;;;;;;;1.48;1.42;;;22.70;65.70;;;;;;5064010;28;43497;-60
2022/07/13 03:17:33;;;;;;;1.65;1.55;;;22.70;65.70;;;;;;5063699;28;43515;-62
2022/07/13 03:20:07;;;;;;;1.60;1.50;;;22.70;65.70;;;;;;5062523;28;44963;-60
2022/07/13 03:22:34;;;;;;;1.65;1.55;;;22.70;65.70;;;;;;5054265;28;43440;-60
2022/07/13 03:25:04;;;;;;;1.48;1.40;;;22.70;65.70;;;;;;5060753;28;43373;-60
2022/07/13 03:27:32;;;;;;;1.70;1.60;;;22.70;65.70;;;;;;5060325;28;43523;-60
2022/07/13 03:29:59;;;;;;;1.40;1.40;;;22.70;65.70;;;;;;5062626;28;43794;-60
2022/07/13 03:32:28;;;;;;;1.42;1.33;;;22.70;65.70;;;;;;5061543;28;43483;-60
2022/07/13 03:34:56;;;;;;;1.73;1.63;;;22.70;65.80;;;;;;5079242;28;43601;-60
2022/07/13 03:37:26;;;;;;;1.60;1.50;;;22.70;65.80;;;;;;5062354;28;43478;-60
2022/07/13 03:39:54;;;;;;;1.40;1.40;;;22.70;65.70;;;;;;5061988;28;44169;-60
2022/07/13 03:42:23;;;;;;;1.60;1.50;;;22.70;65.70;;;;;;5061639;28;43432;-60
2022/07/13 03:44:51;;;;;;;1.45;1.45;;;22.60;65.70;;;;;;5059928;28;43371;-60
2022/07/13 03:47:18;;;;;;;1.70;1.60;;;22.60;65.70;;;;;;5078580;28;43617;-62
2022/07/13 03:49:46;;;;;;;1.40;1.40;;;22.60;65.70;;;;;;5058291;28;45042;-60
2022/07/13 03:52:13;;;;;;;1.55;1.45;;;22.60;65.70;;;;;;5056824;28;43454;-60
2022/07/13 03:54:40;;;;;;;1.50;1.40;;;22.60;65.70;;;;;;5062971;28;43374;-60
2022/07/13 03:57:08;;;;;;;1.45;1.45;;;22.70;65.70;;;;;;5078716;28;43479;-60
2022/07/13 03:59:37;;;;;;;1.50;1.42;;;22.60;65.60;;;;;;5070919;28;44029;-60
2022/07/13 04:02:04;;;;;;;1.60;1.50;;;22.60;65.70;;;;;;5059411;28;43460;-60
2022/07/13 04:04:32;;;;;;;1.45;1.40;;;22.60;65.60;;;;;;5062203;28;43379;-60
2022/07/13 04:07:01;;;;;;;1.50;1.50;;;22.60;65.60;;;;;;5078412;28;43487;-60
2022/07/13 04:09:30;;;;;;;1.63;1.52;;;22.70;65.70;;;;;;5061967;28;44675;-61
2022/07/13 04:11:58;;;;;;;1.60;1.60;;;22.60;65.60;;;;;;5062182;28;43952;-60
2022/07/13 04:14:25;;;;;;;1.60;1.55;;;22.60;65.60;;;;;;5062552;28;43501;-60
2022/07/13 04:16:53;;;;;;;1.75;1.65;;;22.60;65.60;;;;;;5062198;28;43455;-60
2022/07/13 04:19:21;;;;;;;1.77;1.70;;;22.60;65.70;;;;;;5058281;28;43796;-61
2022/07/13 04:21:49;;;;;;;1.60;1.58;;;22.60;65.60;;;;;;5057870;28;43759;-60
2022/07/13 04:24:22;;;;;;;1.63;1.55;;;22.60;65.60;;;;;;5056825;28;43369;-60
2022/07/13 04:26:52;;;;;;;1.60;1.60;;;22.60;65.60;;;;;;5062645;28;43510;-60
2022/07/13 04:29:19;;;;;;;1.80;1.70;;;22.60;65.70;;;;;;5061546;28;45281;-60
2022/07/13 04:31:46;;;;;;;2.20;1.60;;;22.60;65.70;;;;;;5061589;28;43487;-60
2022/07/13 04:34:14;;;;;;;1.50;1.50;;;22.60;65.70;;;;;;5062591;28;43465;-60
2022/07/13 04:36:42;;;;;;;1.60;1.55;;;22.60;65.60;;;;;;5061483;28;43656;-60
2022/07/13 04:39:10;;;;;;;1.90;1.80;;;22.60;65.70;;;;;;5056601;28;44921;-60
2022/07/13 04:41:39;;;;;;;1.90;1.80;;;22.60;65.60;;;;;;5060263;28;43697;-60
2022/07/13 04:44:06;;;;;;;1.80;1.70;;;22.60;65.60;;;;;;5077649;28;43409;-60
2022/07/13 04:46:33;;;;;;;1.60;1.50;;;22.60;65.60;;;;;;5062143;28;43534;-60
2022/07/13 04:49:01;;;;;;;2.00;1.90;;;22.60;65.60;;;;;;5052228;28;43793;-60
2022/07/13 04:51:29;;;;;;;1.90;1.80;;;22.60;65.60;;;;;;5056317;28;44283;-60
2022/07/13 04:53:57;;;;;;;1.65;1.60;;;22.60;65.60;;;;;;5061030;28;43465;-60
2022/07/13 04:56:25;;;;;;;1.90;1.80;;;22.60;65.70;;;;;;5061940;28;43621;-60
2022/07/13 04:58:53;;;;;;;2.10;2.00;;;22.60;65.60;;;;;;5061362;28;44590;-60
2022/07/13 05:01:21;;;;;;;1.60;1.60;;;22.60;65.60;;;;;;5077747;28;44043;-60
2022/07/13 05:03:58;;;;;;;2.00;1.90;;;22.60;65.60;;;;;;5060321;28;43415;-60
2022/07/13 05:06:26;;;;;;;1.75;1.65;;;22.60;65.60;;;;;;5061783;28;43439;-60
2022/07/13 05:08:53;;;;;;;1.90;1.80;;;22.60;65.60;;;;;;5044689;28;44047;-60
2022/07/13 05:11:20;;;;;;;1.80;1.70;;;22.60;65.60;;;;;;5061627;28;43953;-60
2022/07/13 05:13:49;;;;;;;2.28;2.10;;;22.60;65.60;;;;;;5076500;28;43468;-60
2022/07/13 05:16:16;;;;;;;1.98;1.88;;;22.60;65.90;;;;;;5061881;28;43678;-60
2022/07/13 05:18:45;;;;;;;2.00;1.90;;;22.60;66.40;;;;;;5060483;28;43795;-60
2022/07/13 05:21:17;;;;;;;2.05;1.95;;;22.60;65.80;;;;;;5061314;28;43431;-60
2022/07/13 05:23:45;;;;;;;2.20;2.10;;;22.50;65.80;;;;;;5043665;28;43488;-60
2022/07/13 05:26:13;;;;;;;2.10;2.00;;;22.60;65.80;;;;;;5061468;28;43509;-60
2022/07/13 05:28:42;;;;;;;2.10;2.00;;;22.60;65.90;;;;;;5060938;28;44072;-60
2022/07/13 05:31:13;;;;;;;2.13;2.03;;;22.60;65.80;;;;;;5061702;28;45039;-60
2022/07/13 05:33:40;;;;;;;2.13;2.03;;;22.60;65.80;;;;;;5060186;28;43387;-60
2022/07/13 05:36:14;;;;;;;2.30;2.20;;;22.60;65.80;;;;;;5061421;28;43391;-60
2022/07/13 05:38:43;;;;;;;2.00;1.90;;;22.60;65.80;;;;;;5061315;28;44746;-60
2022/07/13 05:41:11;;;;;;;2.10;2.00;;;22.60;65.80;;;;;;5056844;28;43608;-60
2022/07/13 05:43:40;;;;;;;2.25;2.10;;;22.60;65.80;;;;;;5060529;28;43487;-60
2022/07/13 05:46:10;;;;;;;;;;;22.60;65.80;;;;;;5062152;28;43435;-60
2022/07/13 05:48:37;;;;;;;2.10;2.00;;;22.60;65.80;;;;;;5061021;28;45374;-60
2022/07/13 05:51:05;;;;;;;2.13;2.03;;;22.60;65.90;;;;;;5060440;28;43463;-60
2022/07/13 05:53:53;;;;;;;2.15;2.05;;;22.60;65.90;;;;;;5060405;28;43707;-60
2022/07/13 05:56:20;;;;;;;2.20;2.08;;;22.60;65.90;;;;;;5059257;28;43543;-60
2022/07/13 05:58:48;;;;;;;2.25;2.15;;;22.60;65.90;;;;;;5066559;28;45052;-60
2022/07/13 06:01:15;;;;;;;2.05;1.95;;;22.60;65.90;;;;;;5060476;28;43878;-61
2022/07/13 06:03:42;;;;;;;2.38;2.28;;;22.60;66.00;;;;;;5058490;28;44004;-60
2022/07/13 06:06:10;;;;;;;2.40;2.20;;;22.60;66.00;;;;;;5061851;28;43419;-61
2022/07/13 06:08:38;;;;;;;2.35;2.25;;;22.60;66.00;;;;;;5060265;28;44739;-61
2022/07/13 06:11:05;;;;;;;2.55;2.35;;;22.60;66.00;;;;;;5061148;28;43502;-61
2022/07/13 06:13:33;;;;;;;2.40;2.30;;;22.60;66.00;;;;;;5061302;28;43387;-60
2022/07/13 06:16:01;;;;;;;2.10;2.00;;;22.60;66.10;;;;;;5061051;28;43530;-61
2022/07/13 06:18:29;;;;;;;2.17;2.08;;;22.60;66.10;;;;;;5060637;28;44973;-61
2022/07/13 06:20:56;;;;;;;2.20;2.10;;;22.60;66.10;;;;;;5060791;28;43439;-60
2022/07/13 06:23:24;;;;;;;2.30;2.20;;;22.70;66.10;;;;;;5061201;28;43460;-60
2022/07/13 06:25:52;;;;;;;2.20;2.10;;;22.70;66.10;;;;;;5061265;28;43533;-60
2022/07/13 06:28:20;;;;;;;2.22;2.10;;;22.70;66.30;;;;;;5060552;28;45033;-60
2022/07/13 06:30:47;;;;;;;2.45;2.25;;;22.70;66.20;;;;;;5060999;28;44040;-61
2022/07/13 06:33:15;;;;;;;2.22;2.10;;;22.70;66.20;;;;;;5061415;28;43490;-60
2022/07/13 06:35:42;;;;;;;2.35;2.15;;;22.70;66.10;;;;;;5061015;28;43553;-61
2022/07/13 06:38:09;;;;;;;2.22;2.13;;;22.70;66.20;;;;;;5060177;28;45034;-60
2022/07/13 06:40:37;;;;;;;2.05;1.95;;;22.60;66.00;;;;;;5055427;28;43451;-60
2022/07/13 06:43:04;;;;;;;2.30;2.20;;;22.60;66.10;;;;;;5060794;28;43479;-60
2022/07/13 06:45:31;;;;;;;2.20;2.10;;;22.70;66.20;;;;;;5064514;28;43493;-60
2022/07/13 06:47:59;;;;;;;2.15;2.05;;;22.70;66.10;;;;;;5063719;28;44042;-60
2022/07/13 06:50:26;;;;;;;2.22;2.05;;;22.70;66.10;;;;;;5064381;28;44016;-60
2022/07/13 06:52:53;;;;;;;2.55;2.35;;;22.70;66.30;;;;;;5064002;28;43488;-60
2022/07/13 06:55:21;;;;;;;2.50;2.30;;;22.70;66.20;;;;;;5065306;28;43548;-60
2022/07/13 06:57:49;;;;;;;2.40;2.30;;;22.70;66.10;;;;;;5062652;28;44068;-60
2022/07/13 07:00:16;;;;;;;2.70;2.42;;;22.70;66.30;;;;;;5064408;28;44012;-59
2022/07/13 07:02:44;;;;;;;2.40;2.30;;;22.70;66.10;;;;;;5061808;28;43488;-60
2022/07/13 07:05:11;;;;;;;3.13;2.30;;;22.60;66.10;;;;;;5064084;28;43514;-61
2022/07/13 07:07:39;;;;;;;2.78;2.58;;;22.70;66.20;;;;;;5063463;28;44953;-60
2022/07/13 07:10:08;;;;;;;2.33;2.20;;;22.70;66.60;;;;;;5063771;28;44060;-60
2022/07/13 07:12:36;;;;;;;2.42;2.33;;;22.70;66.30;;;;;;5063667;28;43462;-60
2022/07/13 07:15:04;;;;;;;2.63;2.42;;;22.70;66.20;;;;;;5060746;28;43517;-60
2022/07/13 07:17:31;;;;;;;2.30;2.20;;;22.70;66.20;;;;;;4179903;27;10000118;-59
2022/07/13 07:20:00;;;;;;;2.70;2.40;;;22.70;66.10;;;;;;5077411;27;43537;-60
2022/07/13 07:22:27;;;;;;;2.38;2.17;;;22.70;66.00;;;;;;5074911;28;44991;-59
2022/07/13 07:24:56;;;;;;;2.30;2.10;;;22.80;65.90;;;;;;5077944;27;44191;-60
2022/07/13 07:27:26;;;;;;;2.47;2.28;;;22.80;65.90;;;;;;5072931;27;43452;-59
2022/07/13 07:29:54;;;;;;;2.50;2.30;;;22.80;65.90;;;;;;5075893;28;43736;-60
2022/07/13 07:32:21;;;;;;;2.60;2.40;;;22.80;65.80;;;;;;5073298;28;44453;-59
2022/07/13 07:34:49;;;;;;;2.65;2.45;;;22.80;65.80;;;;;;5073042;28;43669;-60
2022/07/13 07:37:20;;;;;;;2.35;2.15;;;22.80;65.70;;;;;;5075251;27;43517;-59
2022/07/13 07:39:51;;;;;;;2.40;2.20;;;22.80;65.80;;;;;;5074986;28;43380;-59
2022/07/13 07:42:18;;;;;;;2.17;2.08;;;22.90;65.80;;;;;;5073671;28;44014;-60
2022/07/13 07:44:45;;;;;;;2.25;2.15;;;22.90;66.20;;;;;;5064848;28;43506;-60
2022/07/13 07:47:13;;;;;;;2.67;2.47;;;22.90;65.90;;;;;;5079356;28;43529;-60
2022/07/13 07:49:40;;;;;;;2.30;2.10;;;22.90;66.00;;;;;;5079823;28;43683;-60
2022/07/13 07:52:08;;;;;;;2.00;1.90;;;22.90;66.00;;;;;;5079230;27;44048;-59
2022/07/13 07:54:55;;;;;;;2.15;2.05;;;22.90;65.90;;;;;;5078020;27;43523;-60
2022/07/13 07:57:28;;;;;;;2.30;2.20;;;22.90;66.00;;;;;;5074273;28;43449;-60
2022/07/13 07:59:55;;;;;;;2.13;2.03;;;22.90;66.00;;;;;;5076237;27;43568;-60
2022/07/13 08:02:23;;;;;;;2.50;2.30;;;22.90;66.00;;;;;;5078658;27;45146;-60
2022/07/13 08:04:50;;;;;;;2.40;2.20;;;22.90;66.00;;;;;;5082128;28;43461;-60
2022/07/13 08:07:17;;;;;;;2.50;2.15;;;22.90;66.00;;;;;;5074709;27;43465;-60
2022/07/13 08:09:45;;;;;;;2.30;2.20;;;22.90;66.00;;;;;;5072542;27;43601;-60
2022/07/13 08:12:12;;;;;;;2.50;2.35;;;22.90;66.00;;;;;;5077908;28;45155;-59
2022/07/13 08:14:42;;;;;;;2.60;2.40;;;22.90;66.00;;;;;;5076339;28;44173;-60
2022/07/13 08:17:09;;;;;;;2.25;2.15;;;22.90;65.90;;;;;;5071497;28;43473;-60
2022/07/13 08:19:37;;;;;;;2.22;2.13;;;22.90;66.00;;;;;;5080131;28;43636;-60
2022/07/13 08:22:08;;;;;;;2.53;2.33;;;22.90;66.00;;;;;;5071757;28;44080;-59
2022/07/13 08:24:35;;;;;;;2.15;2.05;;;22.90;66.00;;;;;;5079908;27;44062;-60
2022/07/13 08:27:03;;;;;;;2.10;2.00;;;22.90;66.00;;;;;;5081676;27;43529;-59
2022/07/13 08:29:30;;;;;;;2.10;2.00;;;22.90;65.90;;;;;;5077734;27;43557;-60
2022/07/13 08:31:58;;;;;;;2.33;2.15;;;22.90;65.90;;;;;;5066334;28;44896;-59
2022/07/13 08:40:08;;;;;;;2.53;2.33;;;22.90;65.90;;;;;;5077944;28;43513;-60
2022/07/13 08:42:39;;;;;;;2.10;2.00;;;22.90;66.00;;;;;;5064767;28;44948;-60
2022/07/13 08:45:07;;;;;;;2.45;2.35;;;22.90;66.60;;;;;;5065625;28;43455;-60
2022/07/13 08:47:35;;;;;;;2.10;2.00;;;22.90;66.00;;;;;;5075657;28;43417;-60
2022/07/13 08:50:08;;;;;;;2.15;2.03;;;22.90;66.00;;;;;;5065085;28;43540;-60
2022/07/13 08:52:38;;;;;;;2.47;2.28;;;23.00;66.00;;;;;;5073288;28;43819;-60
2022/07/13 08:55:06;;;;;;;2.50;2.40;;;22.90;65.90;;;;;;5076813;28;43953;-60
2022/07/13 08:57:34;;;;;;;2.10;2.00;;;23.00;66.00;;;;;;5068836;27;43394;-59
2022/07/13 09:00:09;;;;;;;2.50;2.30;;;23.00;66.00;;;;;;5065816;27;43635;-59
2022/07/13 09:02:36;;;;;;;2.20;2.00;;;23.00;66.00;;;;;;5070970;28;45174;-60
2022/07/13 09:05:05;;;;;;;2.25;2.10;;;23.00;66.00;;;;;;5077376;28;44140;-60
2022/07/13 09:07:34;;;;;;;2.53;2.33;;;23.00;66.00;;;;;;5067586;27;43429;-60
2022/07/13 09:10:03;;;;;;;2.40;2.20;;;23.00;65.90;;;;;;5064908;28;43658;-60
2022/07/13 09:12:35;;;;;;;2.10;1.95;;;23.00;65.90;;;;;;5064494;28;44028;-59
2022/07/13 09:15:08;;;;;;;2.47;2.33;;;23.00;66.00;;;;;;5065313;28;43976;-60
2022/07/13 09:17:43;;;;;;;2.40;2.20;;;23.00;65.90;;;;;;5065400;28;43453;-60
2022/07/13 09:20:11;;;;;;;2.60;2.40;;;23.00;65.90;;;;;;5065202;28;43554;-60
2022/07/13 09:22:54;;;;;;;2.30;2.20;;;23.10;66.00;;;;;;5064425;28;44982;-60
2022/07/13 09:25:37;;;;;;;2.38;2.28;;;23.10;66.10;;;;;;5066738;28;43961;-60
2022/07/13 09:28:06;;;;;;;2.50;2.28;;;23.10;66.00;;;;;;5065131;28;43408;-59
2022/07/13 09:30:37;;;;;;;2.30;2.20;;;23.10;66.10;;;;;;5065100;28;44278;-59
2022/07/13 09:33:04;;;;;;;;;;;23.10;66.10;;;;;;5079865;28;44112;-60
2022/07/13 09:35:47;;;;;;;2.22;2.13;;;23.10;66.10;;;;;;5078967;27;43420;-60
2022/07/13 09:38:28;;;;;;;2.30;2.20;;;23.10;66.10;;;;;;5069471;28;43489;-59
2022/07/13 09:40:56;;;;;;;2.30;2.20;;;23.10;66.20;;;;;;5067767;28;43581;-59
2022/07/13 09:46:09;;;;;;;2.42;2.30;;;23.10;66.20;;;;;;5064213;28;43776;-60
2022/07/13 09:48:38;;;;;;;2.20;2.10;;;23.10;66.20;;;;;;5065682;28;43410;-60
2022/07/13 09:51:07;;;;;;;2.20;2.10;;;23.10;66.20;;;;;;5065653;27;43602;-60
2022/07/13 09:53:36;;;;;;;2.10;2.00;;;23.10;66.20;;;;;;5063792;28;45335;-60
2022/07/13 09:56:06;;;;;;;2.40;2.20;;;23.20;66.20;;;;;;5064777;28;44021;-60
2022/07/13 09:58:36;;;;;;;2.70;2.50;;;23.20;66.10;;;;;;5074695;28;43420;-59
2022/07/13 10:01:04;;;;;;;2.40;2.20;;;23.20;66.20;;;;;;5093426;27;43641;-59
2022/07/13 10:03:32;;;;;;;2.30;2.20;;;23.20;66.10;;;;;;5071501;28;44791;-60
2022/07/13 10:06:01;;;;;;;2.33;2.20;;;23.20;66.10;;;;;;5076409;27;43458;-60
2022/07/13 10:08:30;;;;;;;2.80;2.60;;;23.20;66.10;;;;;;5068412;27;43444;-60
2022/07/13 10:10:58;;;;;;;2.10;2.00;;;23.20;66.10;;;;;;5066029;28;43449;-60
2022/07/13 10:13:25;;;;;;;2.72;2.53;;;23.20;66.10;;;;;;5063887;28;44057;-60
2022/07/13 10:15:52;;;;;;;2.47;2.33;;;23.20;66.10;;;;;;5064357;28;43983;-60
2022/07/13 10:18:31;;;;;;;2.42;2.22;;;23.20;66.00;;;;;;5068468;28;43423;-59
2022/07/13 10:21:10;;;;;;;2.25;2.15;;;23.30;66.10;;;;;;5079630;27;43526;-60
2022/07/13 10:23:39;;;;;;;2.40;2.30;;;23.30;65.90;;;;;;5067570;28;45004;-60
2022/07/13 10:26:20;;;;;;;2.08;1.98;;;23.30;66.00;;;;;;5070288;28;43478;-60
2022/07/13 10:29:11;;;;;;;2.40;2.20;;;23.30;66.00;;;;;;5085143;27;43433;-60
2022/07/13 10:31:40;;;;;;;2.17;2.05;;;23.30;65.90;;;;;;5072604;27;43520;-59
2022/07/13 10:34:10;;;;;;;2.53;2.33;;;23.30;66.00;;;;;;5069684;28;43786;-61
2022/07/13 10:36:55;;;;;;;2.10;2.00;;;23.30;66.00;;;;;;5069821;28;43487;-60
2022/07/13 10:39:27;;;;;;;2.10;2.00;;;23.30;65.90;;;;;;5081340;27;43454;-60
2022/07/13 10:42:10;;;;;;;2.13;2.03;;;23.30;66.00;;;;;;5070573;27;43577;-60
2022/07/13 10:44:38;;;;;;;2.10;2.00;;;23.30;65.80;;;;;;5079243;27;44977;-60
2022/07/13 10:47:08;;;;;;;2.15;2.05;;;23.40;65.90;;;;;;5067726;28;43475;-60
2022/07/13 10:49:47;;;;;;;3.00;2.50;;;23.40;65.70;;;;;;5067978;28;43429;-60
2022/07/13 10:52:26;;;;;;;2.22;2.13;;;23.40;65.90;;;;;;5075322;28;43525;-60
2022/07/13 10:55:20;;;;;;;1.92;1.83;;;23.40;65.90;;;;;;5067445;28;43891;-60
2022/07/13 10:57:48;;;;;;;;;;;23.40;65.70;;;;;;5070069;28;43553;-60
2022/07/13 11:02:51;;;;;;;2.08;1.98;;;23.40;66.10;;;;;;5071644;28;43618;-60
2022/07/13 11:05:30;;;;;;;2.60;2.40;;;23.40;65.80;;;;;;5067484;28;43999;-60
2022/07/13 11:08:10;;;;;;;2.00;1.90;;;23.50;65.90;;;;;;5069583;28;43414;-60
2022/07/13 11:10:37;;;;;;;2.30;2.10;;;23.50;65.80;;;;;;5070962;28;43496;-61
2022/07/13 11:13:09;;;;;;;2.42;2.28;;;23.50;65.90;;;;;;5078807;28;43584;-60
2022/07/13 11:15:53;;;;;;;2.45;2.25;;;23.50;65.60;;;;;;5076180;28;43779;-60
2022/07/13 11:18:33;;;;;;;2.13;2.03;;;23.60;65.90;;;;;;5079193;28;44328;-60
2022/07/13 11:21:08;;;;;;;2.65;2.22;;;23.60;65.80;;;;;;5077036;27;43374;-61
2022/07/13 11:26:46;;;;;;;2.30;2.20;;;23.60;65.80;;;;;;5077123;28;44054;-61
2022/07/13 11:29:55;;;;;;;3.17;2.30;;;23.60;65.70;;;;;;5076351;27;43959;-61
2022/07/13 11:32:29;;;;;;;2.08;1.98;;;23.60;66.00;;;;;;5078423;28;43447;-60
2022/07/13 11:34:56;;;;;;;2.30;2.13;;;23.60;65.90;;;;;;5079019;28;43549;-61
2022/07/13 11:37:24;;;;;;;2.63;2.42;;;23.70;65.80;;;;;;5077471;28;44890;-61
2022/07/13 11:39:51;;;;;;;2.42;2.22;;;23.70;65.80;;;;;;5076696;27;44128;-61
2022/07/13 11:42:23;;;;;;;2.20;2.10;;;23.70;66.00;;;;;;5075360;27;43513;-61
2022/07/13 11:44:53;;;;;;;2.55;2.35;;;23.80;65.90;;;;;;5074913;27;43617;-61
2022/07/13 11:47:21;;;;;;;2.60;2.40;;;23.80;65.90;;;;;;5069634;28;43822;-60
2022/07/13 11:49:53;;;;;;;2.90;2.20;;;23.80;65.90;;;;;;5070083;28;45029;-60
2022/07/13 11:52:25;;;;;;;2.58;2.40;;;23.80;66.00;;;;;;5077801;27;43546;-60
2022/07/13 11:55:04;;;;;;;2.05;1.95;;;23.90;65.80;;;;;;5075931;28;43486;-60
2022/07/13 11:57:33;;;;;;;2.67;2.13;;;23.90;65.80;;;;;;5072207;28;45328;-60
2022/07/13 12:00:05;;;;;;;2.28;2.08;;;23.90;66.40;;;;;;5037141;28;1215182;-59
2022/07/13 12:02:39;;;;;;;1.92;1.83;;;23.90;65.80;;;;;;5074530;27;43480;-60
2022/07/13 12:05:06;;;;;;;2.30;2.20;;;23.90;65.60;;;;;;5066463;28;43367;-60
2022/07/13 12:07:42;;;;;;;2.50;2.30;;;23.90;65.70;;;;;;5065934;28;44946;-60
2022/07/13 12:10:10;;;;;;;2.60;2.40;;;23.90;65.60;;;;;;5066762;28;43980;-60
2022/07/13 12:12:42;;;;;;;2.38;2.20;;;23.90;65.70;;;;;;5067379;27;43483;-60
2022/07/13 12:15:09;;;;;;;2.45;2.28;;;23.90;65.80;;;;;;5064471;28;43538;-60
2022/07/13 12:17:48;;;;;;;2.40;2.22;;;24.00;66.10;;;;;;5066483;28;45124;-60
2022/07/13 12:20:18;;;;;;;2.83;2.30;;;24.00;66.00;;;;;;5068207;28;43853;-60
2022/07/13 12:22:53;;;;;;;2.10;2.00;;;24.00;66.00;;;;;;5070684;28;43406;-60
2022/07/13 12:25:31;;;;;;;2.20;2.05;;;24.00;65.70;;;;;;5066460;28;43457;-60
2022/07/13 12:28:00;;;;;;;2.10;2.00;;;24.00;66.00;;;;;;5080469;28;44655;-60
2022/07/13 12:30:31;;;;;;;2.40;2.20;;;24.00;66.10;;;;;;5067111;27;43300;-60
2022/07/13 12:33:09;;;;;;;2.35;2.25;;;24.10;66.10;;;;;;5069618;28;43485;-60
2022/07/13 12:35:41;;;;;;;2.10;2.00;;;24.10;66.00;;;;;;5065193;28;43389;-60
2022/07/13 12:38:14;;;;;;;2.33;2.13;;;24.10;66.40;;;;;;5078042;28;44925;-60
2022/07/13 12:40:55;;;;;;;3.42;2.58;;;24.10;66.30;;;;;;5073125;28;43524;-61
2022/07/13 12:43:22;;;;;;;2.60;2.10;;;24.10;66.30;;;;;;5065703;28;43417;-60
2022/07/13 12:45:57;;;;;;;2.80;2.10;;;24.10;66.30;;;;;;5067573;28;43522;-60
2022/07/13 12:48:26;;;;;;;2.10;2.00;;;24.20;66.40;;;;;;5078047;27;43902;-60
2022/07/13 12:51:02;;;;;;;2.05;1.85;;;24.20;66.50;;;;;;5068453;28;45057;-60
2022/07/13 12:53:53;;;;;;;2.15;1.98;;;24.20;66.30;;;;;;5069035;27;43514;-60
2022/07/13 12:56:23;;;;;;;2.13;2.03;;;24.20;66.30;;;;;;5077505;28;43556;-60
2022/07/13 12:58:52;;;;;;;2.17;2.00;;;24.30;66.60;;;;;;5065228;28;43758;-60
2022/07/13 13:01:29;;;;;;;2.10;1.90;;;24.30;66.10;;;;;;5071579;28;44076;-60
2022/07/13 13:03:58;;;;;;;2.47;2.28;;;24.30;66.30;;;;;;5081855;28;43563;-60
2022/07/13 13:06:35;;;;;;;2.15;1.95;;;24.30;66.10;;;;;;5074743;27;43500;-61
2022/07/13 13:09:07;;;;;;;2.20;2.00;;;24.30;66.20;;;;;;5064964;28;43795;-60
2022/07/13 13:11:35;;;;;;;2.05;1.85;;;24.30;66.10;;;;;;5065308;28;43452;-59
2022/07/13 13:14:03;;;;;;;1.95;1.85;;;24.30;66.10;;;;;;5065207;28;43436;-60